sensor_id;sensor_type;location;lat;lon;timestamp;pressure;altitude;pressure_sealevel;temperature;humidity
74466;BME280;62916;50.044;15.938;2023-11-19T00:02:10;99481.98;;;20.76;49.63
74466;BME280;62916;50.044;15.938;2023-11-19T00:04:41;99481.70;;;20.73;49.61
74466;BME280;62916;50.044;15.938;2023-11-19T00:07:12;99480.01;;;20.71;49.55
74466;BME280;62916;50.044;15.938;2023-11-19T00:09:43;99480.14;;;20.69;49.45
74466;BME280;62916;50.044;15.938;2023-11-19T00:12:14;99476.07;;;20.67;49.65
74466;BME280;62916;50.044;15.938;2023-11-19T00:14:45;99461.73;;;20.64;49.71
74466;BME280;62916;50.044;15.938;2023-11-19T00:17:16;99456.00;;;20.62;49.59
74466;BME280;62916;50.044;15.938;2023-11-19T00:19:46;99457.45;;;20.60;49.61
74466;BME280;62916;50.044;15.938;2023-11-19T00:22:18;99458.80;;;20.56;49.69
74466;BME280;62916;50.044;15.938;2023-11-19T00:24:51;99457.66;;;20.55;49.78
74466;BME280;62916;50.044;15.938;2023-11-19T00:27:22;99456.57;;;20.54;49.76
74466;BME280;62916;50.044;15.938;2023-11-19T00:29:53;99455.80;;;20.52;49.76
74466;BME280;62916;50.044;15.938;2023-11-19T00:32:24;99447.66;;;20.51;49.84
74466;BME280;62916;50.044;15.938;2023-11-19T00:34:55;99440.54;;;20.48;49.84
74466;BME280;62916;50.044;15.938;2023-11-19T00:37:26;99434.09;;;20.47;49.86
74466;BME280;62916;50.044;15.938;2023-11-19T00:39:57;99426.08;;;20.45;49.84
74466;BME280;62916;50.044;15.938;2023-11-19T00:42:28;99407.58;;;20.44;49.75
74466;BME280;62916;50.044;15.938;2023-11-19T00:44:59;99400.80;;;20.41;49.90
74466;BME280;62916;50.044;15.938;2023-11-19T00:47:31;99394.02;;;20.39;49.98
74466;BME280;62916;50.044;15.938;2023-11-19T00:50:02;99390.22;;;20.38;50.09
74466;BME280;62916;50.044;15.938;2023-11-19T00:52:32;99380.83;;;20.34;50.14
74466;BME280;62916;50.044;15.938;2023-11-19T00:55:04;99379.67;;;20.35;50.02
74466;BME280;62916;50.044;15.938;2023-11-19T00:57:36;99369.46;;;20.33;50.07
74466;BME280;62916;50.044;15.938;2023-11-19T01:00:09;99362.90;;;20.31;50.11
74466;BME280;62916;50.044;15.938;2023-11-19T01:02:49;99356.86;;;20.28;50.09
74466;BME280;62916;50.044;15.938;2023-11-19T01:05:21;99350.15;;;20.26;50.04
74466;BME280;62916;50.044;15.938;2023-11-19T01:07:52;99346.69;;;20.25;50.16
74466;BME280;62916;50.044;15.938;2023-11-19T01:10:24;99334.63;;;20.23;50.25
74466;BME280;62916;50.044;15.938;2023-11-19T01:12:55;99324.84;;;20.22;50.15
74466;BME280;62916;50.044;15.938;2023-11-19T01:15:27;99324.60;;;20.22;50.32
74466;BME280;62916;50.044;15.938;2023-11-19T01:17:58;99329.20;;;20.21;50.23
74466;BME280;62916;50.044;15.938;2023-11-19T01:20:29;99319.73;;;20.18;50.29
74466;BME280;62916;50.044;15.938;2023-11-19T01:22:59;99319.27;;;20.18;50.40
74466;BME280;62916;50.044;15.938;2023-11-19T01:25:30;99311.60;;;20.16;50.20
74466;BME280;62916;50.044;15.938;2023-11-19T01:28:01;99304.16;;;20.14;50.30
74466;BME280;62916;50.044;15.938;2023-11-19T01:30:32;99311.48;;;20.12;50.11
74466;BME280;62916;50.044;15.938;2023-11-19T01:33:03;99315.67;;;20.10;50.18
74466;BME280;62916;50.044;15.938;2023-11-19T01:35:35;99314.08;;;20.08;50.36
74466;BME280;62916;50.044;15.938;2023-11-19T01:38:06;99313.48;;;20.04;50.34
74466;BME280;62916;50.044;15.938;2023-11-19T01:40:38;99322.35;;;20.03;50.42
74466;BME280;62916;50.044;15.938;2023-11-19T01:43:08;99315.97;;;20.01;50.29
74466;BME280;62916;50.044;15.938;2023-11-19T01:45:41;99312.66;;;20.00;50.40
74466;BME280;62916;50.044;15.938;2023-11-19T01:48:11;99306.51;;;19.98;50.53
74466;BME280;62916;50.044;15.938;2023-11-19T01:50:45;99293.37;;;19.96;50.54
74466;BME280;62916;50.044;15.938;2023-11-19T01:53:16;99282.03;;;19.95;50.50
74466;BME280;62916;50.044;15.938;2023-11-19T01:55:48;99268.39;;;19.94;50.59
74466;BME280;62916;50.044;15.938;2023-11-19T01:58:19;99269.59;;;19.93;50.48
74466;BME280;62916;50.044;15.938;2023-11-19T02:00:50;99277.66;;;19.92;50.55
74466;BME280;62916;50.044;15.938;2023-11-19T02:03:22;99270.41;;;19.90;50.69
74466;BME280;62916;50.044;15.938;2023-11-19T02:05:53;99257.77;;;19.89;50.78
74466;BME280;62916;50.044;15.938;2023-11-19T02:08:24;99263.01;;;19.86;50.68
74466;BME280;62916;50.044;15.938;2023-11-19T02:10:56;99258.06;;;19.85;50.74
74466;BME280;62916;50.044;15.938;2023-11-19T02:13:27;99255.67;;;19.84;50.76
74466;BME280;62916;50.044;15.938;2023-11-19T02:15:59;99256.79;;;19.82;50.71
74466;BME280;62916;50.044;15.938;2023-11-19T02:18:31;99250.14;;;19.83;50.80
74466;BME280;62916;50.044;15.938;2023-11-19T02:21:02;99244.68;;;19.83;50.83
74466;BME280;62916;50.044;15.938;2023-11-19T02:23:35;99240.19;;;19.82;50.89
74466;BME280;62916;50.044;15.938;2023-11-19T02:26:12;99235.92;;;19.82;51.03
74466;BME280;62916;50.044;15.938;2023-11-19T02:28:44;99228.05;;;19.81;50.86
74466;BME280;62916;50.044;15.938;2023-11-19T02:31:15;99213.59;;;19.81;51.07
74466;BME280;62916;50.044;15.938;2023-11-19T02:33:47;99198.62;;;19.81;51.07
74466;BME280;62916;50.044;15.938;2023-11-19T02:36:19;99186.25;;;19.80;51.03
74466;BME280;62916;50.044;15.938;2023-11-19T02:38:51;99180.98;;;19.79;51.05
74466;BME280;62916;50.044;15.938;2023-11-19T02:41:22;99173.34;;;19.78;51.01
74466;BME280;62916;50.044;15.938;2023-11-19T02:43:53;99167.45;;;19.76;51.02
74466;BME280;62916;50.044;15.938;2023-11-19T02:46:24;99163.58;;;19.74;51.05
74466;BME280;62916;50.044;15.938;2023-11-19T02:48:55;99160.46;;;19.73;51.05
74466;BME280;62916;50.044;15.938;2023-11-19T02:51:26;99161.73;;;19.71;51.04
74466;BME280;62916;50.044;15.938;2023-11-19T02:54:00;99170.55;;;19.69;51.05
74466;BME280;62916;50.044;15.938;2023-11-19T02:56:31;99159.30;;;19.69;51.00
74466;BME280;62916;50.044;15.938;2023-11-19T02:59:06;99158.27;;;19.67;51.14
74466;BME280;62916;50.044;15.938;2023-11-19T03:01:47;99166.69;;;19.65;51.18
74466;BME280;62916;50.044;15.938;2023-11-19T03:04:20;99169.91;;;19.64;51.22
74466;BME280;62916;50.044;15.938;2023-11-19T03:06:52;99172.20;;;19.63;51.30
74466;BME280;62916;50.044;15.938;2023-11-19T03:09:23;99170.10;;;19.62;51.28
74466;BME280;62916;50.044;15.938;2023-11-19T03:11:54;99172.38;;;19.61;51.23
74466;BME280;62916;50.044;15.938;2023-11-19T03:14:25;99174.30;;;19.59;51.27
74466;BME280;62916;50.044;15.938;2023-11-19T03:16:56;99159.98;;;19.58;51.34
74466;BME280;62916;50.044;15.938;2023-11-19T03:19:27;99155.27;;;19.57;51.37
74466;BME280;62916;50.044;15.938;2023-11-19T03:21:59;99141.77;;;19.56;51.35
74466;BME280;62916;50.044;15.938;2023-11-19T03:24:32;99140.69;;;19.55;51.32
74466;BME280;62916;50.044;15.938;2023-11-19T03:27:03;99136.05;;;19.54;51.39
74466;BME280;62916;50.044;15.938;2023-11-19T03:29:34;99139.78;;;19.53;51.44
74466;BME280;62916;50.044;15.938;2023-11-19T03:32:06;99146.27;;;19.52;51.49
74466;BME280;62916;50.044;15.938;2023-11-19T03:34:37;99150.06;;;19.51;51.49
74466;BME280;62916;50.044;15.938;2023-11-19T03:37:08;99150.36;;;19.50;51.53
74466;BME280;62916;50.044;15.938;2023-11-19T03:39:39;99151.44;;;19.49;51.56
74466;BME280;62916;50.044;15.938;2023-11-19T03:42:09;99160.27;;;19.48;51.48
74466;BME280;62916;50.044;15.938;2023-11-19T03:44:42;99155.33;;;19.47;51.51
74466;BME280;62916;50.044;15.938;2023-11-19T03:47:13;99152.02;;;19.47;51.45
74466;BME280;62916;50.044;15.938;2023-11-19T03:49:49;99148.09;;;19.46;51.39
74466;BME280;62916;50.044;15.938;2023-11-19T03:52:20;99143.80;;;19.44;51.41
74466;BME280;62916;50.044;15.938;2023-11-19T03:54:51;99136.02;;;19.43;51.45
74466;BME280;62916;50.044;15.938;2023-11-19T03:57:23;99132.73;;;19.43;51.39
74466;BME280;62916;50.044;15.938;2023-11-19T03:59:54;99131.14;;;19.42;51.45
74466;BME280;62916;50.044;15.938;2023-11-19T04:02:25;99127.66;;;19.42;51.45
74466;BME280;62916;50.044;15.938;2023-11-19T04:04:58;99114.02;;;19.40;51.55
74466;BME280;62916;50.044;15.938;2023-11-19T04:07:28;99103.34;;;19.39;51.61
74466;BME280;62916;50.044;15.938;2023-11-19T04:09:59;99095.33;;;19.38;51.56
74466;BME280;62916;50.044;15.938;2023-11-19T04:12:30;99089.55;;;19.37;51.58
74466;BME280;62916;50.044;15.938;2023-11-19T04:15:01;99093.94;;;19.37;51.58
74466;BME280;62916;50.044;15.938;2023-11-19T04:17:32;99097.17;;;19.36;51.58
74466;BME280;62916;50.044;15.938;2023-11-19T04:20:05;99091.06;;;19.34;51.51
74466;BME280;62916;50.044;15.938;2023-11-19T04:22:40;99081.98;;;19.33;51.57
74466;BME280;62916;50.044;15.938;2023-11-19T04:25:11;99080.67;;;19.32;51.64
74466;BME280;62916;50.044;15.938;2023-11-19T04:27:43;99072.95;;;19.30;51.57
74466;BME280;62916;50.044;15.938;2023-11-19T04:30:15;99066.54;;;19.30;51.47
74466;BME280;62916;50.044;15.938;2023-11-19T04:32:46;99067.62;;;19.29;51.40
74466;BME280;62916;50.044;15.938;2023-11-19T04:35:18;99064.63;;;19.27;51.38
74466;BME280;62916;50.044;15.938;2023-11-19T04:37:49;99057.29;;;19.28;51.42
74466;BME280;62916;50.044;15.938;2023-11-19T04:40:20;99052.37;;;19.27;51.36
74466;BME280;62916;50.044;15.938;2023-11-19T04:42:52;99049.29;;;19.26;51.30
74466;BME280;62916;50.044;15.938;2023-11-19T04:45:23;99048.84;;;19.26;51.24
74466;BME280;62916;50.044;15.938;2023-11-19T04:47:54;99040.23;;;19.24;51.30
74466;BME280;62916;50.044;15.938;2023-11-19T04:50:25;99038.80;;;19.23;51.25
74466;BME280;62916;50.044;15.938;2023-11-19T04:52:56;99040.18;;;19.21;51.32
74466;BME280;62916;50.044;15.938;2023-11-19T04:55:29;99034.30;;;19.20;51.34
74466;BME280;62916;50.044;15.938;2023-11-19T04:58:00;99019.70;;;19.19;51.34
74466;BME280;62916;50.044;15.938;2023-11-19T05:00:31;99008.73;;;19.17;51.32
74466;BME280;62916;50.044;15.938;2023-11-19T05:03:02;99006.45;;;19.18;51.34
74466;BME280;62916;50.044;15.938;2023-11-19T05:05:33;99002.77;;;19.17;51.27
74466;BME280;62916;50.044;15.938;2023-11-19T05:08:04;98999.29;;;19.16;51.34
74466;BME280;62916;50.044;15.938;2023-11-19T05:10:35;98993.52;;;19.15;51.31
74466;BME280;62916;50.044;15.938;2023-11-19T05:13:07;98969.60;;;19.14;51.30
74466;BME280;62916;50.044;15.938;2023-11-19T05:15:38;98964.02;;;19.13;51.40
74466;BME280;62916;50.044;15.938;2023-11-19T05:18:09;98953.66;;;19.13;51.36
74466;BME280;62916;50.044;15.938;2023-11-19T05:20:40;98944.96;;;19.12;51.34
74466;BME280;62916;50.044;15.938;2023-11-19T05:23:11;98931.52;;;19.10;51.49
74466;BME280;62916;50.044;15.938;2023-11-19T05:25:44;98934.38;;;19.10;51.39
74466;BME280;62916;50.044;15.938;2023-11-19T05:28:17;98943.73;;;19.09;51.38
74466;BME280;62916;50.044;15.938;2023-11-19T05:30:48;98945.94;;;19.08;51.43
74466;BME280;62916;50.044;15.938;2023-11-19T05:33:18;98950.58;;;19.07;51.37
74466;BME280;62916;50.044;15.938;2023-11-19T05:35:49;98955.10;;;19.06;51.49
74466;BME280;62916;50.044;15.938;2023-11-19T05:38:20;98957.27;;;19.04;51.28
74466;BME280;62916;50.044;15.938;2023-11-19T05:40:51;98952.96;;;19.03;51.32
74466;BME280;62916;50.044;15.938;2023-11-19T05:43:22;98954.52;;;19.02;51.40
74466;BME280;62916;50.044;15.938;2023-11-19T05:45:53;98949.25;;;19.01;51.43
74466;BME280;62916;50.044;15.938;2023-11-19T05:48:25;98930.05;;;19.00;51.49
74466;BME280;62916;50.044;15.938;2023-11-19T05:50:56;98933.57;;;18.98;51.52
74466;BME280;62916;50.044;15.938;2023-11-19T05:53:27;98934.26;;;18.98;51.41
74466;BME280;62916;50.044;15.938;2023-11-19T05:55:58;98925.16;;;18.97;51.45
74466;BME280;62916;50.044;15.938;2023-11-19T05:58:33;98918.48;;;18.96;51.55
74466;BME280;62916;50.044;15.938;2023-11-19T06:01:06;98911.95;;;18.94;51.55
74466;BME280;62916;50.044;15.938;2023-11-19T06:03:38;98921.33;;;18.95;51.61
74466;BME280;62916;50.044;15.938;2023-11-19T06:06:10;98905.58;;;18.95;51.62
74466;BME280;62916;50.044;15.938;2023-11-19T06:08:41;98895.81;;;18.94;51.55
74466;BME280;62916;50.044;15.938;2023-11-19T06:11:14;98896.05;;;18.94;51.62
74466;BME280;62916;50.044;15.938;2023-11-19T06:13:48;98894.73;;;18.94;51.71
74466;BME280;62916;50.044;15.938;2023-11-19T06:16:20;98885.25;;;18.92;51.80
74466;BME280;62916;50.044;15.938;2023-11-19T06:18:51;98875.79;;;18.94;51.77
74466;BME280;62916;50.044;15.938;2023-11-19T06:21:23;98865.06;;;18.93;51.74
74466;BME280;62916;50.044;15.938;2023-11-19T06:23:54;98870.57;;;18.91;51.59
74466;BME280;62916;50.044;15.938;2023-11-19T06:26:25;98863.48;;;18.88;51.58
74466;BME280;62916;50.044;15.938;2023-11-19T06:28:56;98849.45;;;18.85;51.34
74466;BME280;62916;50.044;15.938;2023-11-19T06:31:27;98852.02;;;18.82;51.27
74466;BME280;62916;50.044;15.938;2023-11-19T06:33:58;98857.68;;;18.79;51.10
74466;BME280;62916;50.044;15.938;2023-11-19T06:36:29;98861.05;;;18.76;50.98
74466;BME280;62916;50.044;15.938;2023-11-19T06:39:00;98854.55;;;18.73;50.83
74466;BME280;62916;50.044;15.938;2023-11-19T06:41:31;98849.27;;;18.71;50.84
74466;BME280;62916;50.044;15.938;2023-11-19T06:44:02;98848.56;;;18.70;50.74
74466;BME280;62916;50.044;15.938;2023-11-19T06:46:34;98839.77;;;18.68;50.57
74466;BME280;62916;50.044;15.938;2023-11-19T06:49:05;98844.20;;;18.66;50.37
74466;BME280;62916;50.044;15.938;2023-11-19T06:51:37;98838.95;;;18.64;50.33
74466;BME280;62916;50.044;15.938;2023-11-19T06:54:11;98827.67;;;18.63;50.19
74466;BME280;62916;50.044;15.938;2023-11-19T06:56:42;98822.50;;;18.62;50.09
74466;BME280;62916;50.044;15.938;2023-11-19T06:59:14;98818.21;;;18.60;49.93
74466;BME280;62916;50.044;15.938;2023-11-19T07:01:46;98835.78;;;18.58;49.88
74466;BME280;62916;50.044;15.938;2023-11-19T07:04:16;98840.73;;;18.56;49.74
74466;BME280;62916;50.044;15.938;2023-11-19T07:06:47;98836.06;;;18.54;49.61
74466;BME280;62916;50.044;15.938;2023-11-19T07:09:19;98818.55;;;18.51;49.58
74466;BME280;62916;50.044;15.938;2023-11-19T07:11:50;98801.12;;;18.50;49.47
74466;BME280;62916;50.044;15.938;2023-11-19T07:14:22;98798.23;;;18.47;49.45
74466;BME280;62916;50.044;15.938;2023-11-19T07:16:53;98814.84;;;18.46;49.26
74466;BME280;62916;50.044;15.938;2023-11-19T07:19:25;98828.06;;;18.44;49.22
74466;BME280;62916;50.044;15.938;2023-11-19T07:21:56;98831.48;;;18.42;49.10
74466;BME280;62916;50.044;15.938;2023-11-19T07:24:27;98833.93;;;18.41;49.18
74466;BME280;62916;50.044;15.938;2023-11-19T07:26:58;98838.80;;;18.39;49.05
74466;BME280;62916;50.044;15.938;2023-11-19T07:29:31;98830.66;;;18.39;48.94
74466;BME280;62916;50.044;15.938;2023-11-19T07:32:03;98819.52;;;18.38;49.14
74466;BME280;62916;50.044;15.938;2023-11-19T07:34:35;98818.20;;;18.38;48.93
74466;BME280;62916;50.044;15.938;2023-11-19T07:37:06;98797.09;;;18.38;48.86
74466;BME280;62916;50.044;15.938;2023-11-19T07:39:38;98796.44;;;18.38;48.78
74466;BME280;62916;50.044;15.938;2023-11-19T07:42:11;98807.89;;;18.37;48.68
74466;BME280;62916;50.044;15.938;2023-11-19T07:44:42;98807.91;;;18.39;48.68
74466;BME280;62916;50.044;15.938;2023-11-19T07:47:13;98801.59;;;18.41;48.48
74466;BME280;62916;50.044;15.938;2023-11-19T07:49:44;98794.23;;;18.43;48.48
74466;BME280;62916;50.044;15.938;2023-11-19T07:52:15;98791.59;;;18.46;48.57
74466;BME280;62916;50.044;15.938;2023-11-19T07:54:50;98795.31;;;18.48;48.62
74466;BME280;62916;50.044;15.938;2023-11-19T07:57:21;98795.05;;;18.50;48.63
74466;BME280;62916;50.044;15.938;2023-11-19T07:59:53;98797.23;;;18.52;48.59
74466;BME280;62916;50.044;15.938;2023-11-19T08:02:24;98796.41;;;18.51;48.75
74466;BME280;62916;50.044;15.938;2023-11-19T08:04:55;98793.47;;;18.55;48.64
74466;BME280;62916;50.044;15.938;2023-11-19T08:07:27;98792.55;;;18.56;48.76
74466;BME280;62916;50.044;15.938;2023-11-19T08:09:58;98793.58;;;18.59;48.84
74466;BME280;62916;50.044;15.938;2023-11-19T08:12:29;98793.14;;;18.61;48.76
74466;BME280;62916;50.044;15.938;2023-11-19T08:15:00;98790.49;;;18.63;48.67
74466;BME280;62916;50.044;15.938;2023-11-19T08:17:31;98785.33;;;18.62;48.70
74466;BME280;62916;50.044;15.938;2023-11-19T08:20:03;98780.11;;;18.65;48.65
74466;BME280;62916;50.044;15.938;2023-11-19T08:22:35;98780.69;;;18.67;48.73
74466;BME280;62916;50.044;15.938;2023-11-19T08:25:07;98775.47;;;18.69;48.78
74466;BME280;62916;50.044;15.938;2023-11-19T08:27:39;98775.86;;;18.72;48.78
74466;BME280;62916;50.044;15.938;2023-11-19T08:30:11;98775.60;;;18.75;48.85
74466;BME280;62916;50.044;15.938;2023-11-19T08:32:43;98771.02;;;18.79;48.91
74466;BME280;62916;50.044;15.938;2023-11-19T08:35:14;98766.20;;;18.84;49.00
74466;BME280;62916;50.044;15.938;2023-11-19T08:37:46;98765.60;;;18.87;49.09
74466;BME280;62916;50.044;15.938;2023-11-19T08:40:17;98761.48;;;18.93;49.06
74466;BME280;62916;50.044;15.938;2023-11-19T08:42:49;98758.17;;;18.97;49.10
74466;BME280;62916;50.044;15.938;2023-11-19T08:45:20;98759.57;;;19.00;49.12
74466;BME280;62916;50.044;15.938;2023-11-19T08:47:51;98751.95;;;19.03;49.08
74466;BME280;62916;50.044;15.938;2023-11-19T08:50:23;98764.71;;;19.05;49.11
74466;BME280;62916;50.044;15.938;2023-11-19T08:52:54;98772.12;;;19.08;49.02
74466;BME280;62916;50.044;15.938;2023-11-19T08:55:26;98768.23;;;19.08;49.12
74466;BME280;62916;50.044;15.938;2023-11-19T08:57:58;98764.94;;;19.13;49.07
74466;BME280;62916;50.044;15.938;2023-11-19T09:00:30;98770.20;;;19.17;49.20
74466;BME280;62916;50.044;15.938;2023-11-19T09:03:02;98763.29;;;19.20;49.18
74466;BME280;62916;50.044;15.938;2023-11-19T09:05:34;98759.20;;;19.22;49.22
74466;BME280;62916;50.044;15.938;2023-11-19T09:08:06;98758.99;;;19.24;49.06
74466;BME280;62916;50.044;15.938;2023-11-19T09:10:38;98761.66;;;19.26;49.17
74466;BME280;62916;50.044;15.938;2023-11-19T09:13:09;98758.94;;;19.29;49.24
74466;BME280;62916;50.044;15.938;2023-11-19T09:15:40;98748.60;;;19.31;49.27
74466;BME280;62916;50.044;15.938;2023-11-19T09:18:12;98740.23;;;19.34;49.30
74466;BME280;62916;50.044;15.938;2023-11-19T09:20:43;98735.19;;;19.36;49.37
74466;BME280;62916;50.044;15.938;2023-11-19T09:23:15;98730.64;;;19.37;49.32
74466;BME280;62916;50.044;15.938;2023-11-19T09:25:46;98716.23;;;19.38;49.25
74466;BME280;62916;50.044;15.938;2023-11-19T09:28:17;98712.73;;;19.41;49.29
74466;BME280;62916;50.044;15.938;2023-11-19T09:30:48;98712.38;;;19.43;49.17
74466;BME280;62916;50.044;15.938;2023-11-19T09:33:19;98708.35;;;19.46;49.23
74466;BME280;62916;50.044;15.938;2023-11-19T09:35:50;98712.70;;;19.49;49.30
74466;BME280;62916;50.044;15.938;2023-11-19T09:38:22;98710.84;;;19.52;49.23
74466;BME280;62916;50.044;15.938;2023-11-19T09:40:54;98704.52;;;19.54;49.22
74466;BME280;62916;50.044;15.938;2023-11-19T09:43:27;98702.48;;;19.57;49.37
74466;BME280;62916;50.044;15.938;2023-11-19T09:46:01;98699.75;;;19.60;49.30
74466;BME280;62916;50.044;15.938;2023-11-19T09:48:37;98695.14;;;19.62;49.40
74466;BME280;62916;50.044;15.938;2023-11-19T09:51:10;98690.77;;;19.66;49.46
74466;BME280;62916;50.044;15.938;2023-11-19T09:53:42;98686.59;;;19.69;49.28
74466;BME280;62916;50.044;15.938;2023-11-19T09:56:14;98678.00;;;19.73;49.37
74466;BME280;62916;50.044;15.938;2023-11-19T09:58:46;98675.64;;;19.76;49.48
74466;BME280;62916;50.044;15.938;2023-11-19T10:01:18;98670.95;;;19.78;49.26
74466;BME280;62916;50.044;15.938;2023-11-19T10:03:57;98659.79;;;19.81;49.52
74466;BME280;62916;50.044;15.938;2023-11-19T10:06:31;98655.88;;;19.84;49.19
74466;BME280;62916;50.044;15.938;2023-11-19T10:09:03;98655.46;;;19.89;49.46
74466;BME280;62916;50.044;15.938;2023-11-19T10:11:34;98656.73;;;19.92;49.50
74466;BME280;62916;50.044;15.938;2023-11-19T10:14:06;98665.55;;;19.94;49.35
74466;BME280;62916;50.044;15.938;2023-11-19T10:16:37;98664.27;;;19.97;49.43
74466;BME280;62916;50.044;15.938;2023-11-19T10:19:08;98661.05;;;19.99;49.36
74466;BME280;62916;50.044;15.938;2023-11-19T10:21:43;98663.84;;;20.02;49.33
74466;BME280;62916;50.044;15.938;2023-11-19T10:24:16;98659.12;;;20.04;49.21
74466;BME280;62916;50.044;15.938;2023-11-19T10:26:50;98650.65;;;20.07;49.41
74466;BME280;62916;50.044;15.938;2023-11-19T10:29:21;98646.69;;;20.10;49.39
74466;BME280;62916;50.044;15.938;2023-11-19T10:31:59;98638.16;;;20.13;49.53
74466;BME280;62916;50.044;15.938;2023-11-19T10:34:50;98633.31;;;20.16;49.30
74466;BME280;62916;50.044;15.938;2023-11-19T10:37:30;98629.64;;;20.18;49.40
74466;BME280;62916;50.044;15.938;2023-11-19T10:40:03;98627.93;;;20.21;49.38
74466;BME280;62916;50.044;15.938;2023-11-19T10:42:35;98630.46;;;20.24;49.41
74466;BME280;62916;50.044;15.938;2023-11-19T10:45:23;98631.44;;;20.26;49.33
74466;BME280;62916;50.044;15.938;2023-11-19T10:47:55;98618.35;;;20.28;49.42
74466;BME280;62916;50.044;15.938;2023-11-19T10:50:28;98620.94;;;20.30;49.38
74466;BME280;62916;50.044;15.938;2023-11-19T10:53:00;98620.39;;;20.34;49.35
74466;BME280;62916;50.044;15.938;2023-11-19T10:55:33;98614.86;;;20.36;49.53
74466;BME280;62916;50.044;15.938;2023-11-19T10:58:06;98613.12;;;20.38;49.41
74466;BME280;62916;50.044;15.938;2023-11-19T11:00:44;98614.58;;;20.40;49.53
74466;BME280;62916;50.044;15.938;2023-11-19T11:03:18;98617.63;;;20.41;49.47
74466;BME280;62916;50.044;15.938;2023-11-19T11:05:51;98618.73;;;20.44;49.44
74466;BME280;62916;50.044;15.938;2023-11-19T11:08:22;98613.03;;;20.44;49.52
74466;BME280;62916;50.044;15.938;2023-11-19T11:10:55;98611.22;;;20.47;49.54
74466;BME280;62916;50.044;15.938;2023-11-19T11:13:26;98614.57;;;20.48;49.39
74466;BME280;62916;50.044;15.938;2023-11-19T11:15:59;98621.89;;;20.48;49.63
74466;BME280;62916;50.044;15.938;2023-11-19T11:18:31;98619.45;;;20.51;49.63
74466;BME280;62916;50.044;15.938;2023-11-19T11:21:06;98615.28;;;20.53;49.46
74466;BME280;62916;50.044;15.938;2023-11-19T11:24:07;98605.60;;;20.54;49.51
74466;BME280;62916;50.044;15.938;2023-11-19T11:27:11;98593.80;;;20.55;49.70
74466;BME280;62916;50.044;15.938;2023-11-19T11:29:47;98586.48;;;20.57;49.62
74466;BME280;62916;50.044;15.938;2023-11-19T11:32:30;98582.77;;;20.57;49.56
74466;BME280;62916;50.044;15.938;2023-11-19T11:35:16;98585.03;;;20.59;49.64
74466;BME280;62916;50.044;15.938;2023-11-19T11:37:53;98592.55;;;20.60;49.49
74466;BME280;62916;50.044;15.938;2023-11-19T11:40:26;98591.06;;;20.61;49.63
74466;BME280;62916;50.044;15.938;2023-11-19T11:42:58;98595.17;;;20.63;49.65
74466;BME280;62916;50.044;15.938;2023-11-19T11:45:39;98595.29;;;20.65;49.54
74466;BME280;62916;50.044;15.938;2023-11-19T11:48:15;98589.98;;;20.65;49.42
74466;BME280;62916;50.044;15.938;2023-11-19T11:50:51;98588.06;;;20.66;49.66
74466;BME280;62916;50.044;15.938;2023-11-19T11:53:24;98592.52;;;20.64;49.62
74466;BME280;62916;50.044;15.938;2023-11-19T11:56:02;98592.89;;;20.65;49.47
74466;BME280;62916;50.044;15.938;2023-11-19T11:58:35;98589.05;;;20.66;49.53
74466;BME280;62916;50.044;15.938;2023-11-19T12:01:08;98583.23;;;20.66;49.63
74466;BME280;62916;50.044;15.938;2023-11-19T12:03:52;98574.39;;;20.62;49.51
74466;BME280;62916;50.044;15.938;2023-11-19T12:06:28;98574.13;;;20.65;49.39
74466;BME280;62916;50.044;15.938;2023-11-19T12:09:03;98572.04;;;20.65;49.47
74466;BME280;62916;50.044;15.938;2023-11-19T12:11:35;98575.66;;;20.65;49.39
74466;BME280;62916;50.044;15.938;2023-11-19T12:14:07;98573.14;;;20.65;49.19
74466;BME280;62916;50.044;15.938;2023-11-19T12:16:39;98567.70;;;20.64;49.25
74466;BME280;62916;50.044;15.938;2023-11-19T12:19:11;98560.02;;;20.63;49.15
74466;BME280;62916;50.044;15.938;2023-11-19T12:21:44;98559.77;;;20.63;49.22
74466;BME280;62916;50.044;15.938;2023-11-19T12:24:15;98560.67;;;20.63;49.17
74466;BME280;62916;50.044;15.938;2023-11-19T12:26:48;98555.16;;;20.63;49.12
74466;BME280;62916;50.044;15.938;2023-11-19T12:29:22;98553.34;;;20.63;49.09
74466;BME280;62916;50.044;15.938;2023-11-19T12:31:56;98548.61;;;20.63;48.91
74466;BME280;62916;50.044;15.938;2023-11-19T12:34:35;98545.29;;;20.63;49.12
74466;BME280;62916;50.044;15.938;2023-11-19T12:37:07;98542.05;;;20.64;49.24
74466;BME280;62916;50.044;15.938;2023-11-19T12:39:39;98533.16;;;20.64;49.19
74466;BME280;62916;50.044;15.938;2023-11-19T12:42:10;98542.73;;;20.63;49.16
74466;BME280;62916;50.044;15.938;2023-11-19T12:44:56;98544.63;;;20.64;49.24
74466;BME280;62916;50.044;15.938;2023-11-19T12:47:27;98543.00;;;20.64;49.25
74466;BME280;62916;50.044;15.938;2023-11-19T12:49:59;98543.11;;;20.64;49.18
74466;BME280;62916;50.044;15.938;2023-11-19T12:52:31;98548.64;;;20.64;49.15
74466;BME280;62916;50.044;15.938;2023-11-19T12:55:02;98547.61;;;20.64;49.25
74466;BME280;62916;50.044;15.938;2023-11-19T12:57:41;98548.77;;;20.63;49.24
74466;BME280;62916;50.044;15.938;2023-11-19T13:00:21;98545.86;;;20.63;49.28
74466;BME280;62916;50.044;15.938;2023-11-19T13:02:55;98540.31;;;20.62;49.33
74466;BME280;62916;50.044;15.938;2023-11-19T13:05:32;98531.60;;;20.61;49.27
74466;BME280;62916;50.044;15.938;2023-11-19T13:08:05;98527.95;;;20.61;49.49
74466;BME280;62916;50.044;15.938;2023-11-19T13:10:52;98526.30;;;20.61;49.45
74466;BME280;62916;50.044;15.938;2023-11-19T13:13:23;98522.05;;;20.60;49.53
74466;BME280;62916;50.044;15.938;2023-11-19T13:15:54;98520.92;;;20.60;49.58
74466;BME280;62916;50.044;15.938;2023-11-19T13:18:32;98515.33;;;20.59;49.38